Time;durP1;ratioP1;P1;durP2;ratioP2;P2;SDS_P1;SDS_P2;PMS_P1;PMS_P2;Temp;Humidity;BMP_temperature;BMP_pressure;BME280_temperature;BME280_humidity;BME280_pressure;Samples;Min_cycle;Max_cycle;Signal;HPM_P1;HPM_P2
2022/07/01 00:01:54;;;;;;;10.00;2.70;;;;;;;22.09;40.77;99473.47;5071175;28;20040;-69
2022/07/01 00:04:20;;;;;;;4.28;2.28;;;;;;;22.06;40.80;99486.50;5067474;28;20036;-68
2022/07/01 00:06:46;;;;;;;3.92;2.00;;;;;;;21.99;40.93;99483.78;5075058;28;20111;-69
2022/07/01 00:09:11;;;;;;;6.15;1.90;;;;;;;21.95;40.98;99480.66;5072110;28;20428;-68
2022/07/01 00:11:37;;;;;;;3.08;1.73;;;;;;;21.87;41.02;99475.41;5069094;28;20503;-69
2022/07/01 00:14:02;;;;;;;4.28;2.03;;;;;;;21.88;41.13;99482.44;5073491;28;20085;-68
2022/07/01 00:16:28;;;;;;;4.50;1.80;;;;;;;21.87;41.08;99475.41;5074367;28;20074;-69
2022/07/01 00:18:53;;;;;;;9.07;3.53;;;;;;;21.83;41.33;99476.84;5074566;28;20035;-68
2022/07/01 00:21:19;;;;;;;4.30;1.90;;;;;;;21.83;41.29;99486.75;5073553;28;20028;-67
2022/07/01 00:23:44;;;;;;;9.00;2.30;;;;;;;21.80;41.34;99488.81;5073820;28;20036;-68
2022/07/01 00:26:10;;;;;;;4.43;2.50;;;;;;;21.83;41.23;99490.31;5074406;28;20064;-69
2022/07/01 00:28:35;;;;;;;5.22;1.83;;;;;;;21.85;41.28;99493.59;5072272;28;20066;-69
2022/07/01 00:31:01;;;;;;;4.30;1.48;;;;;;;21.80;41.32;99483.44;5074544;28;20032;-68
2022/07/01 00:33:26;;;;;;;6.93;1.83;;;;;;;21.77;41.31;99486.50;5074065;28;20407;-68
2022/07/01 00:35:53;;;;;;;4.95;2.30;;;;;;;21.79;41.21;99479.06;5057934;28;20067;-69
2022/07/01 00:38:18;;;;;;;5.45;2.30;;;;;;;21.80;41.24;99485.31;5068626;28;20119;-69
2022/07/01 00:40:44;;;;;;;6.05;2.20;;;;;;;21.81;41.18;99481.59;5072938;28;20115;-68
2022/07/01 00:43:09;;;;;;;2.88;1.75;;;;;;;21.78;41.26;99487.34;5072816;28;20024;-69
2022/07/01 00:45:35;;;;;;;4.85;2.17;;;;;;;21.69;41.37;99473.19;5074026;28;20055;-68
2022/07/01 00:48:01;;;;;;;3.53;2.03;;;;;;;21.70;41.57;99490.16;5069720;28;20036;-68
2022/07/01 00:50:26;;;;;;;6.07;2.10;;;;;;;21.75;41.14;99482.34;5071861;28;20404;-68
2022/07/01 00:52:52;;;;;;;6.57;2.10;;;;;;;21.79;41.38;99483.63;5073766;28;20066;-69
2022/07/01 00:55:17;;;;;;;4.10;2.20;;;;;;;21.79;41.29;99483.63;5073834;28;20028;-68
2022/07/01 00:57:43;;;;;;;4.68;2.03;;;;;;;21.72;41.64;99475.50;5073182;28;20078;-69
2022/07/01 01:00:13;;;;;;;4.40;2.05;;;;;;;21.70;41.50;99474.03;5072068;28;20086;-68
2022/07/01 01:02:39;;;;;;;8.75;1.95;;;;;;;21.72;41.22;99478.19;5063529;28;20033;-69
2022/07/01 01:05:07;;;;;;;3.60;1.80;;;;;;;21.71;41.40;99481.06;5053874;28;20112;-69
2022/07/01 01:07:33;;;;;;;4.65;2.05;;;;;;;21.71;41.48;99481.06;5057722;28;20439;-69
2022/07/01 01:09:59;;;;;;;4.32;1.92;;;;;;;21.72;41.48;99477.34;5072262;28;20036;-69
2022/07/01 01:12:25;;;;;;;3.38;1.92;;;;;;;21.75;41.31;99476.97;5071535;28;20054;-69
2022/07/01 01:14:51;;;;;;;2.05;1.58;;;;;;;21.74;41.29;99475.31;5073431;28;20059;-69
2022/07/01 01:17:17;;;;;;;3.33;1.60;;;;;;;21.76;41.37;99489.41;5072481;28;20109;-68
2022/07/01 01:19:44;;;;;;;6.05;2.38;;;;;;;21.71;41.52;99494.53;5073032;28;20407;-69
2022/07/01 01:22:14;;;;;;;3.70;2.00;;;;;;;21.76;41.38;99482.16;5070878;28;20056;-69
2022/07/01 01:24:42;;;;;;;2.67;1.88;;;;;;;21.78;41.26;99484.66;5073120;28;20396;-69
2022/07/01 01:27:08;;;;;;;4.18;2.10;;;;;;;21.77;41.18;99488.38;5073044;28;20040;-69
2022/07/01 01:29:35;;;;;;;3.83;2.00;;;;;;;21.72;41.43;99488.13;5071426;28;20513;-69
2022/07/01 01:32:02;;;;;;;4.10;2.22;;;;;;;21.69;41.49;99483.97;5072445;28;20062;-69
2022/07/01 01:34:27;;;;;;;4.15;2.05;;;;;;;21.78;41.22;99488.16;5073070;28;20113;-69
2022/07/01 01:36:53;;;;;;;3.78;2.00;;;;;;;21.81;41.12;99486.97;5072250;28;20048;-69
2022/07/01 01:39:19;;;;;;;4.57;2.20;;;;;;;21.74;41.39;99488.75;5070868;28;20056;-69
2022/07/01 01:41:46;;;;;;;2.50;1.77;;;;;;;21.72;41.23;99491.66;5072829;28;20063;-69
2022/07/01 01:44:12;;;;;;;3.85;1.80;;;;;;;21.68;41.31;99503.03;5073014;28;20056;-69
2022/07/01 01:46:38;;;;;;;18.50;2.75;;;;;;;21.70;41.33;99500.94;5073087;28;20071;-69
2022/07/01 01:49:06;;;;;;;4.85;1.98;;;;;;;21.67;41.30;99495.97;5072671;28;20035;-69
2022/07/01 01:51:32;;;;;;;9.63;2.13;;;;;;;21.58;41.48;99503.31;5055374;28;20559;-68
2022/07/01 01:53:58;;;;;;;2.75;1.85;;;;;;;21.53;41.54;99501.22;5052864;28;20108;-68
2022/07/01 01:56:24;;;;;;;3.97;1.98;;;;;;;21.60;41.28;99498.59;5053678;28;20033;-68
2022/07/01 01:58:51;;;;;;;2.30;1.63;;;;;;;21.62;41.28;99497.38;5057690;28;20032;-68
2022/07/01 02:01:18;;;;;;;3.10;1.50;;;;;;;21.60;41.36;99495.91;5072610;28;20113;-69
2022/07/01 02:03:44;;;;;;;4.07;2.22;;;;;;;21.56;41.93;99492.72;5072314;28;20048;-68
2022/07/01 02:06:11;;;;;;;4.32;2.00;;;;;;;21.51;41.64;99500.56;5072226;28;20039;-68
2022/07/01 02:08:37;;;;;;;5.95;2.05;;;;;;;21.51;41.72;99503.25;5058384;28;20037;-68
2022/07/01 02:11:04;;;;;;;3.05;2.13;;;;;;;21.51;41.69;99500.56;5055683;28;20510;-68
2022/07/01 02:13:29;;;;;;;2.47;1.52;;;;;;;21.50;41.52;99496.22;5068525;28;20032;-68
2022/07/01 02:15:56;;;;;;;4.32;2.13;;;;;;;21.53;41.68;99495.84;5052495;28;20044;-68
2022/07/01 02:18:22;;;;;;;5.30;1.83;;;;;;;21.54;41.58;99507.41;5066610;28;20064;-68
2022/07/01 02:20:47;;;;;;;3.35;2.00;;;;;;;21.50;41.48;99509.66;5072400;28;20400;-68
2022/07/01 02:23:13;;;;;;;22.98;3.15;;;;;;;21.33;41.48;99504.53;5070844;28;20087;-68
2022/07/01 02:25:38;;;;;;;9.55;1.75;;;;;;;21.26;41.40;99506.31;5072234;28;20040;-68
2022/07/01 02:28:04;;;;;;;5.63;1.70;;;;;;;21.31;41.46;99509.28;5068048;28;20036;-68
2022/07/01 02:30:36;;;;;;;4.53;1.70;;;;;;;21.35;41.44;99512.41;5072370;28;20041;-68
2022/07/01 02:33:02;;;;;;;2.45;1.67;;;;;;;21.45;41.40;99509.41;5071874;28;20389;-68
2022/07/01 02:35:28;;;;;;;3.35;1.85;;;;;;;21.50;41.02;99513.19;5072291;28;20090;-68
2022/07/01 02:37:53;;;;;;;1.83;1.27;;;;;;;21.41;41.19;99518.88;5059180;28;20068;-68
2022/07/01 02:40:19;;;;;;;4.47;1.70;;;;;;;21.38;41.29;99520.09;5052581;28;20025;-68
2022/07/01 02:42:44;;;;;;;2.78;1.67;;;;;;;21.23;41.20;99527.41;5055922;28;20033;-68
2022/07/01 02:45:10;;;;;;;7.72;1.92;;;;;;;21.17;41.23;99529.00;5072329;28;20031;-68
2022/07/01 02:47:39;;;;;;;4.95;1.60;;;;;;;21.20;41.22;99534.00;5069311;28;20514;-68
2022/07/01 02:50:07;;;;;;;5.45;1.33;;;;;;;21.24;41.06;99542.53;5072197;28;20037;-68
2022/07/01 02:52:36;;;;;;;3.58;2.10;;;;;;;21.10;40.96;99545.06;5071215;28;20521;-68
2022/07/01 02:55:07;;;;;;;4.28;1.60;;;;;;;21.13;41.07;99550.09;5070910;28;20423;-68
2022/07/01 02:57:32;;;;;;;3.28;1.58;;;;;;;21.22;40.99;99555.34;5071061;28;20059;-68
2022/07/01 02:59:59;;;;;;;3.65;1.67;;;;;;;21.32;40.57;99559.38;5072440;28;20066;-68
2022/07/01 03:02:24;;;;;;;5.85;2.05;;;;;;;21.27;40.89;99552.91;5068510;28;20037;-69
2022/07/01 03:04:51;;;;;;;6.63;1.90;;;;;;;21.22;40.88;99555.34;5070198;28;20119;-68
2022/07/01 03:07:17;;;;;;;11.93;1.98;;;;;;;21.29;40.72;99557.06;5071328;28;20564;-68
2022/07/01 03:09:44;;;;;;;15.05;2.10;;;;;;;21.32;40.84;99551.31;5070232;28;20087;-68
2022/07/01 03:12:27;;;;;;;2.40;1.58;;;;;;;21.37;40.59;99553.44;5069190;28;20571;-68
2022/07/01 03:14:52;;;;;;;5.70;1.90;;;;;;;21.44;40.59;99575.88;5052137;28;20057;-68
2022/07/01 03:17:19;;;;;;;9.15;3.00;;;;;;;21.48;40.54;99573.63;5059785;28;20141;-68
2022/07/01 03:19:45;;;;;;;5.65;1.98;;;;;;;21.43;40.06;99573.34;5071675;28;20040;-68
2022/07/01 03:22:10;;;;;;;8.55;1.60;;;;;;;21.53;40.01;99575.75;5071301;28;20570;-68
2022/07/01 03:24:36;;;;;;;5.93;1.42;;;;;;;21.71;39.58;99570.78;5071537;28;20070;-68
2022/07/01 03:27:02;;;;;;;5.30;2.05;;;;;;;21.82;39.08;99573.97;5068761;28;20051;-68
2022/07/01 03:29:27;;;;;;;2.00;1.30;;;;;;;21.90;39.09;99571.97;5051815;28;20088;-69
2022/07/01 03:31:53;;;;;;;8.93;1.77;;;;;;;21.94;38.94;99578.66;5054438;28;20029;-68
2022/07/01 03:34:18;;;;;;;4.57;1.30;;;;;;;21.71;38.74;99578.88;5071546;28;20042;-68
2022/07/01 03:36:44;;;;;;;3.15;1.50;;;;;;;21.63;38.81;99576.28;5072267;28;20064;-68
2022/07/01 03:39:09;;;;;;;3.35;1.30;;;;;;;21.64;38.70;99575.25;5073106;28;20032;-69
2022/07/01 03:41:35;;;;;;;4.55;1.60;;;;;;;21.72;38.60;99574.28;5075395;28;20029;-69
2022/07/01 03:44:00;;;;;;;8.00;1.80;;;;;;;21.84;38.61;99580.81;5075366;28;20502;-68
2022/07/01 03:46:26;;;;;;;6.35;1.60;;;;;;;21.85;38.26;99578.97;5073316;28;20043;-69
2022/07/01 03:48:51;;;;;;;4.43;1.50;;;;;;;21.98;38.15;99579.09;5073601;28;20037;-69
2022/07/01 03:51:17;;;;;;;14.57;1.70;;;;;;;22.02;37.78;99585.75;5074773;28;20407;-69
2022/07/01 03:56:27;;;;;;;3.00;1.20;;;;;;;21.71;37.74;99595.00;5075003;28;20062;-68
2022/07/01 03:58:52;;;;;;;5.97;1.15;;;;;;;21.66;37.61;99585.84;5073396;28;20456;-69
2022/07/01 04:01:18;;;;;;;4.45;1.20;;;;;;;21.67;37.61;99587.53;5075607;28;20063;-68
2022/07/01 04:03:43;;;;;;;1.85;1.10;;;;;;;21.50;37.81;99593.94;5055283;28;20033;-69
2022/07/01 04:06:09;;;;;;;4.38;1.38;;;;;;;21.23;37.86;99592.84;5055081;28;20499;-69
2022/07/01 04:08:35;;;;;;;11.32;1.63;;;;;;;21.19;37.74;99592.34;5070301;28;20079;-69
2022/07/01 04:11:00;;;;;;;3.40;1.38;;;;;;;21.05;37.92;99595.91;5073171;28;20043;-69
2022/07/01 04:13:27;;;;;;;2.53;1.38;;;;;;;21.11;37.88;99603.25;5074669;28;20118;-69
2022/07/01 04:15:52;;;;;;;2.90;1.40;;;;;;;21.14;37.89;99612.78;5074900;28;20067;-69
2022/07/01 04:18:18;;;;;;;3.65;1.48;;;;;;;21.08;37.90;99613.56;5066294;28;20099;-69
2022/07/01 04:22:32;;;;;;;3.03;1.50;;;;;;;21.11;38.06;99614.00;5074520;28;20066;-68
2022/07/01 04:23:29;;;;;;;2.70;1.45;;;;;;;21.20;38.02;99625.50;5073508;28;20446;-68
2022/07/01 04:25:54;;;;;;;5.55;1.23;;;;;;;21.38;37.75;99618.88;5074605;28;20111;-68
2022/07/01 04:28:20;;;;;;;3.38;1.60;;;;;;;21.55;37.45;99622.97;5070947;28;20519;-68
2022/07/01 04:30:45;;;;;;;5.57;1.40;;;;;;;21.56;37.21;99613.88;5074236;28;20395;-68
2022/07/01 04:33:12;;;;;;;5.35;1.27;;;;;;;21.54;37.26;99613.25;5064519;28;20140;-68
2022/07/01 04:35:39;;;;;;;5.40;1.38;;;;;;;21.61;37.22;99622.25;5054598;28;20033;-68
2022/07/01 04:38:04;;;;;;;9.85;1.33;;;;;;;21.74;36.88;99623.41;5067000;28;20056;-68
2022/07/01 04:40:30;;;;;;;3.10;0.93;;;;;;;21.91;36.66;99626.69;5060915;28;20072;-68
2022/07/01 04:42:55;;;;;;;1.58;0.93;;;;;;;22.22;36.14;99622.78;5059218;28;20032;-69
2022/07/01 04:45:21;;;;;;;2.90;1.25;;;;;;;22.50;35.37;99630.94;5074356;28;20047;-68
2022/07/01 04:47:46;;;;;;;2.55;1.02;;;;;;;22.70;34.92;99630.25;5073004;28;20468;-68
2022/07/01 04:50:12;;;;;;;3.35;0.93;;;;;;;22.82;34.63;99623.25;5072437;28;20047;-69
2022/07/01 04:52:38;;;;;;;8.82;1.65;;;;;;;22.88;34.42;99628.84;5073633;28;20047;-68
2022/07/01 04:55:04;;;;;;;5.07;1.13;;;;;;;23.05;34.07;99629.38;5073626;28;20036;-68
2022/07/01 04:57:30;;;;;;;5.93;1.13;;;;;;;23.28;33.92;99626.38;5074028;28;20047;-69
2022/07/01 04:59:55;;;;;;;3.47;1.10;;;;;;;23.54;33.49;99635.59;5072251;28;20032;-69
2022/07/01 05:02:21;;;;;;;5.68;0.95;;;;;;;23.64;33.32;99632.50;5071495;28;20066;-69
2022/07/01 05:04:46;;;;;;;3.42;1.08;;;;;;;23.77;32.67;99629.84;5073980;28;20044;-68
2022/07/01 05:07:27;;;;;;;2.60;0.88;;;;;;;23.78;32.36;99645.00;5072814;28;20480;-68
2022/07/01 05:09:56;;;;;;;3.50;0.85;;;;;;;23.44;32.55;99633.28;5073465;28;20111;-69
2022/07/01 05:12:23;;;;;;;2.05;0.80;;;;;;;23.41;32.43;99639.09;5065315;28;20116;-68
2022/07/01 05:14:51;;;;;;;1.42;0.82;;;;;;;23.43;32.60;99632.47;5053750;28;20063;-68
2022/07/01 05:17:16;;;;;;;4.57;0.93;;;;;;;23.70;32.23;99640.63;5061695;28;20048;-68
2022/07/01 05:22:26;;;;;;;4.32;0.93;;;;;;;23.66;31.57;99641.25;5071655;28;20101;-69
2022/07/01 05:24:51;;;;;;;4.30;0.80;;;;;;;23.66;31.52;99639.38;5073585;28;20033;-69
2022/07/01 05:27:17;;;;;;;2.47;1.15;;;;;;;23.81;31.70;99638.34;5071925;28;20085;-69
2022/07/01 05:29:42;;;;;;;9.13;1.45;;;;;;;23.99;31.36;99632.38;5062180;28;20036;-67
2022/07/01 05:32:07;;;;;;;2.75;0.93;;;;;;;23.90;31.02;99634.41;5072240;28;20131;-67
2022/07/01 05:34:33;;;;;;;1.77;1.35;;;;;;;23.84;31.02;99633.38;5072244;28;20028;-68
2022/07/01 05:36:58;;;;;;;2.38;0.77;;;;;;;23.74;31.12;99630.25;5068131;28;20526;-68
2022/07/01 05:39:25;;;;;;;1.95;0.85;;;;;;;23.66;31.27;99631.25;5061585;28;20032;-68
2022/07/01 05:41:50;;;;;;;1.98;0.85;;;;;;;23.73;31.60;99629.41;5073073;28;20067;-68
2022/07/01 05:44:16;;;;;;;0.95;0.60;;;;;;;23.87;31.50;99629.44;5073076;28;20380;-69
2022/07/01 05:46:42;;;;;;;4.85;1.00;;;;;;;23.71;31.31;99633.34;5071060;28;20029;-68
2022/07/01 05:49:07;;;;;;;3.97;0.95;;;;;;;23.61;31.47;99636.44;5072626;28;20484;-68
2022/07/01 05:51:33;;;;;;;3.25;0.88;;;;;;;23.59;31.60;99636.66;5071989;28;20033;-67
2022/07/01 05:53:58;;;;;;;2.58;0.90;;;;;;;23.59;31.55;99636.66;5072004;28;20039;-68
2022/07/01 05:56:25;;;;;;;2.05;0.90;;;;;;;23.51;31.43;99636.84;5072258;28;20042;-69
2022/07/01 05:58:50;;;;;;;1.88;0.90;;;;;;;23.61;31.58;99636.44;5070523;28;20408;-69
2022/07/01 06:01:16;;;;;;;4.03;0.93;;;;;;;23.65;31.16;99634.19;5072594;28;20039;-69
2022/07/01 06:03:42;;;;;;;4.05;0.88;;;;;;;23.68;31.37;99621.09;5071069;28;20114;-69
2022/07/01 06:06:07;;;;;;;4.45;0.70;;;;;;;23.74;31.14;99627.53;5072294;28;20032;-69
2022/07/01 06:08:33;;;;;;;5.38;1.35;;;;;;;23.57;31.39;99640.59;5072757;28;20476;-69
2022/07/01 06:10:59;;;;;;;1.92;0.90;;;;;;;23.57;31.34;99635.19;5070818;28;20082;-70
2022/07/01 06:13:24;;;;;;;4.65;0.98;;;;;;;23.51;31.29;99636.00;5071238;28;20044;-69
2022/07/01 06:15:50;;;;;;;8.02;1.35;;;;;;;23.29;31.02;99633.47;5072582;28;20040;-69
2022/07/01 06:18:16;;;;;;;3.50;0.77;;;;;;;23.27;31.09;99633.63;5071840;28;20056;-69
2022/07/01 06:20:42;;;;;;;4.55;0.90;;;;;;;23.17;31.19;99625.88;5055699;28;20063;-69
2022/07/01 06:23:07;;;;;;;4.55;0.80;;;;;;;23.12;31.21;99639.16;5069097;28;20041;-69
2022/07/01 06:25:32;;;;;;;1.05;0.60;;;;;;;22.88;31.38;99632.41;5072341;28;20032;-69
2022/07/01 06:27:58;;;;;;;1.45;0.77;;;;;;;22.73;31.49;99634.38;5071742;28;20032;-69
2022/07/01 06:30:24;;;;;;;3.17;1.02;;;;;;;22.50;31.87;99636.31;5070018;28;20028;-69
2022/07/01 06:32:49;;;;;;;3.42;0.70;;;;;;;22.34;32.15;99628.50;5071676;28;20035;-69
2022/07/01 06:35:14;;;;;;;8.13;1.20;;;;;;;22.23;32.16;99646.03;5072655;28;20043;-69
2022/07/01 06:37:40;;;;;;;5.65;0.82;;;;;;;22.03;32.08;99654.78;5070419;28;20549;-69
2022/07/01 06:40:07;;;;;;;5.57;0.80;;;;;;;21.91;32.23;99643.69;5062218;28;20537;-69
2022/07/01 06:42:33;;;;;;;1.38;0.65;;;;;;;21.74;31.99;99650.34;5054194;28;20033;-69
2022/07/01 06:44:59;;;;;;;3.72;0.80;;;;;;;21.81;32.20;99645.88;5071985;28;20047;-69
2022/07/01 06:47:24;;;;;;;1.98;0.75;;;;;;;21.92;32.03;99656.13;5068737;28;20033;-69
2022/07/01 06:49:50;;;;;;;1.30;0.60;;;;;;;21.99;31.94;99649.94;5072544;28;20219;-69
2022/07/01 06:52:15;;;;;;;1.10;0.63;;;;;;;21.97;32.00;99646.66;5070229;28;20028;-68
2022/07/01 06:54:41;;;;;;;5.75;1.00;;;;;;;21.90;32.05;99647.41;5071629;28;20033;-68
2022/07/01 06:57:08;;;;;;;3.53;0.75;;;;;;;21.95;32.05;99647.66;5071174;28;20036;-68
2022/07/01 06:59:33;;;;;;;4.95;0.77;;;;;;;22.06;32.29;99659.75;5070968;28;20495;-69
2022/07/01 07:01:59;;;;;;;7.15;0.82;;;;;;;22.14;32.28;99668.75;5071904;28;20115;-70
2022/07/01 07:04:25;;;;;;;4.90;0.90;;;;;;;22.20;31.87;99666.13;5071307;28;20127;-69
2022/07/01 07:06:50;;;;;;;4.90;0.65;;;;;;;22.15;30.68;99665.84;5068863;28;20051;-69
2022/07/01 07:09:16;;;;;;;4.78;0.85;;;;;;;22.14;30.40;99660.69;5055082;28;20117;-70
2022/07/01 07:11:41;;;;;;;4.03;1.40;;;;;;;22.04;29.90;99661.00;5074975;28;20032;-69
2022/07/01 07:14:07;;;;;;;8.65;1.58;;;;;;;21.94;29.75;99661.31;5057746;28;20033;-69
2022/07/01 07:16:32;;;;;;;1.75;0.95;;;;;;;21.95;29.86;99661.13;5063647;28;20045;-70
2022/07/01 07:18:58;;;;;;;5.22;0.70;;;;;;;21.98;29.95;99661.78;5076231;28;20494;-70
2022/07/01 07:21:23;;;;;;;2.88;0.90;;;;;;;21.96;30.21;99667.34;5069173;28;20403;-69
2022/07/01 07:23:49;;;;;;;6.28;0.98;;;;;;;21.99;30.18;99664.28;5057960;28;20432;-70
2022/07/01 07:26:14;;;;;;;1.58;0.70;;;;;;;22.05;29.80;99674.28;5058838;28;20483;-70
2022/07/01 07:28:40;;;;;;;7.70;1.83;;;;;;;22.00;29.86;99657.00;5075863;28;20575;-69
2022/07/01 07:31:05;;;;;;;4.20;1.10;;;;;;;21.94;29.86;99664.00;5075445;28;20107;-70
2022/07/01 07:33:31;;;;;;;3.67;0.80;;;;;;;21.91;30.06;99664.41;5075349;28;20515;-70
2022/07/01 07:35:57;;;;;;;6.30;0.88;;;;;;;21.99;30.17;99672.34;5075584;28;20079;-71
2022/07/01 07:38:22;;;;;;;9.60;1.13;;;;;;;22.06;30.27;99665.16;5061676;28;20036;-69
2022/07/01 07:40:48;;;;;;;4.38;0.73;;;;;;;22.05;30.10;99671.59;5055025;28;20043;-72
2022/07/01 07:43:13;;;;;;;2.33;0.93;;;;;;;22.06;29.63;99675.94;5068571;28;20036;-71
2022/07/01 07:45:39;;;;;;;3.95;1.00;;;;;;;21.99;29.40;99666.97;5075234;28;20072;-71
2022/07/01 07:48:05;;;;;;;1.05;0.68;;;;;;;21.98;29.63;99680.66;5072787;28;20115;-71
2022/07/01 07:50:31;;;;;;;3.40;0.82;;;;;;;22.03;29.43;99679.03;5074924;28;20511;-71
2022/07/01 07:52:56;;;;;;;6.63;1.00;;;;;;;22.06;29.30;99675.94;5074524;28;20031;-70
2022/07/01 07:55:22;;;;;;;5.75;1.00;;;;;;;22.12;29.10;99692.38;5075538;28;20052;-71
2022/07/01 07:57:48;;;;;;;3.13;0.68;;;;;;;22.08;29.30;99676.56;5072687;28;20035;-70
2022/07/01 08:00:13;;;;;;;7.97;1.80;;;;;;;22.06;29.30;99681.31;5074370;28;20044;-69
2022/07/01 08:02:40;;;;;;;1.65;0.90;;;;;;;22.06;29.30;99677.81;5075030;28;20040;-69
2022/07/01 08:05:07;;;;;;;1.17;0.75;;;;;;;22.09;28.90;99689.03;5059073;28;20033;-70
2022/07/01 08:07:37;;;;;;;4.72;0.88;;;;;;;22.02;28.06;99693.53;5061932;28;20081;-70
2022/07/01 08:10:07;;;;;;;1.90;0.83;;;;;;;21.90;28.04;99695.88;5064728;28;20043;-70
2022/07/01 08:12:33;;;;;;;1.77;0.50;;;;;;;21.91;28.14;99694.88;5065681;28;20271;-70
2022/07/01 08:14:59;;;;;;;3.00;0.60;;;;;;;22.00;28.17;99702.81;5054799;28;20114;-69
2022/07/01 08:17:24;;;;;;;3.25;0.82;;;;;;;21.94;27.93;99705.25;5058057;28;20056;-69
2022/07/01 08:19:50;;;;;;;1.50;0.63;;;;;;;21.88;28.13;99694.41;5074758;28;20044;-70
2022/07/01 08:22:16;;;;;;;8.40;1.15;;;;;;;21.91;27.95;99704.81;5071836;28;20124;-69
2022/07/01 08:24:42;;;;;;;2.38;0.65;;;;;;;21.95;27.74;99724.94;5073893;28;20040;-69
2022/07/01 08:27:07;;;;;;;0.75;0.55;;;;;;;21.97;27.70;99716.69;5074521;28;20059;-69
2022/07/01 08:29:33;;;;;;;0.68;0.60;;;;;;;21.98;27.82;99712.97;5073454;28;20076;-69
2022/07/01 08:31:58;;;;;;;1.10;0.60;;;;;;;22.03;27.78;99732.06;5073469;28;20035;-70
2022/07/01 08:34:23;;;;;;;2.72;0.80;;;;;;;22.06;27.73;99710.13;5074503;28;20028;-70
2022/07/01 08:36:49;;;;;;;1.00;0.65;;;;;;;22.08;27.64;99722.38;5073060;28;20028;-69
2022/07/01 08:39:14;;;;;;;3.58;1.15;;;;;;;22.05;27.33;99711.16;5074175;28;20024;-69
2022/07/01 08:41:41;;;;;;;6.45;0.95;;;;;;;21.95;27.53;99706.09;5065402;28;20044;-69
2022/07/01 08:44:08;;;;;;;3.90;0.60;;;;;;;21.91;27.73;99719.09;5071783;28;20040;-69
2022/07/01 08:46:34;;;;;;;1.30;0.60;;;;;;;21.92;27.65;99710.00;5073450;28;20032;-68
2022/07/01 08:49:00;;;;;;;2.75;0.93;;;;;;;21.98;27.82;99715.66;5073306;28;20032;-69
2022/07/01 08:51:26;;;;;;;1.70;0.65;;;;;;;22.04;27.81;99704.94;5071702;28;20048;-69
2022/07/01 08:53:51;;;;;;;8.05;3.33;;;;;;;22.10;27.63;99712.25;5074100;28;20024;-70
2022/07/01 08:56:59;;;;;;;9.30;1.30;;;;;;;22.12;27.29;99720.16;5057421;28;20400;-69
2022/07/01 08:59:06;;;;;;;8.18;1.67;;;;;;;22.08;27.30;99726.94;5063587;28;20036;-69
2022/07/01 09:01:33;;;;;;;3.30;1.35;;;;;;;22.04;27.35;99721.13;5060301;28;20033;-69
2022/07/01 09:04:18;;;;;;;5.88;1.80;;;;;;;22.05;27.65;99717.41;5053809;28;20032;-69
2022/07/01 09:06:44;;;;;;;5.35;2.00;;;;;;;22.06;27.78;99718.22;5071134;28;20403;-69
2022/07/01 09:09:12;;;;;;;3.33;1.63;;;;;;;22.08;27.53;99713.47;5071143;28;20058;-68
2022/07/01 09:11:44;;;;;;;5.18;1.77;;;;;;;22.12;27.82;99711.22;5066745;28;20055;-68
2022/07/01 09:14:15;;;;;;;5.82;1.10;;;;;;;22.11;27.64;99715.81;5073432;28;20384;-69
2022/07/01 09:16:45;;;;;;;6.78;1.05;;;;;;;22.06;27.56;99720.91;5072685;28;20143;-69
2022/07/01 09:19:13;;;;;;;7.93;1.50;;;;;;;22.06;27.84;99715.53;5073811;28;20082;-69
2022/07/01 09:21:39;;;;;;;2.13;0.73;;;;;;;22.12;27.56;99714.78;5068703;28;20111;-68
2022/07/01 09:24:26;;;;;;;4.32;1.13;;;;;;;22.18;27.70;99727.47;5058357;28;20072;-68
2022/07/01 09:26:55;;;;;;;2.80;0.90;;;;;;;22.23;27.60;99716.09;5059092;28;20059;-69
2022/07/01 09:29:31;;;;;;;6.35;1.70;;;;;;;22.17;27.21;99727.66;5071936;28;20047;-69
2022/07/01 09:31:57;;;;;;;2.53;0.95;;;;;;;22.12;27.29;99720.16;5060820;28;20060;-69
2022/07/01 09:34:23;;;;;;;4.45;1.88;;;;;;;22.09;27.41;99723.25;5073018;28;20060;-68
2022/07/01 09:36:56;;;;;;;4.63;0.95;;;;;;;22.09;27.53;99731.31;5072314;28;20503;-69
2022/07/01 09:39:22;;;;;;;4.57;0.85;;;;;;;22.06;27.32;99729.81;5072161;28;20051;-69
2022/07/01 09:41:48;;;;;;;6.63;0.70;;;;;;;22.01;27.19;99726.03;5071894;28;20029;-69
2022/07/01 09:44:13;;;;;;;1.55;0.70;;;;;;;21.93;27.13;99735.06;5071314;28;20071;-69
2022/07/01 09:46:51;;;;;;;2.05;0.80;;;;;;;21.90;27.13;99730.09;5073006;28;20119;-69
2022/07/01 09:49:17;;;;;;;2.15;0.93;;;;;;;21.93;27.40;99732.38;5073161;28;20034;-69
2022/07/01 09:51:43;;;;;;;4.72;0.90;;;;;;;22.01;27.36;99734.97;5069450;28;20390;-69
2022/07/01 09:54:12;;;;;;;1.35;0.80;;;;;;;22.08;26.96;99733.16;5072957;28;20043;-69
2022/07/01 09:56:38;;;;;;;2.85;0.70;;;;;;;22.11;26.75;99731.97;5072508;28;20033;-68
2022/07/01 09:59:04;;;;;;;3.33;0.88;;;;;;;22.10;26.46;99719.50;5067370;28;20040;-69
2022/07/01 10:01:31;;;;;;;1.52;0.90;;;;;;;22.04;26.33;99741.81;5053426;28;20043;-69
2022/07/01 10:03:57;;;;;;;4.93;0.73;;;;;;;22.01;26.22;99737.66;5073286;28;20040;-69
2022/07/01 10:06:41;;;;;;;2.63;0.90;;;;;;;22.05;26.39;99740.81;5069627;28;20067;-70
2022/07/01 10:09:16;;;;;;;5.70;1.00;;;;;;;22.02;26.75;99736.63;5069225;28;20028;-70
2022/07/01 10:12:01;;;;;;;3.00;0.80;;;;;;;22.05;26.90;99736.25;5072011;28;20105;-70
2022/07/01 10:14:28;;;;;;;4.43;0.90;;;;;;;22.07;26.97;99736.06;5071092;28;20058;-70
2022/07/01 10:16:53;;;;;;;1.45;0.77;;;;;;;22.09;26.88;99726.75;5071993;28;20577;-70
2022/07/01 10:19:30;;;;;;;2.38;0.75;;;;;;;22.08;26.62;99721.56;5072167;28;20040;-70
2022/07/01 10:22:00;;;;;;;3.35;0.82;;;;;;;22.04;26.80;99728.34;5071172;28;20036;-70
2022/07/01 10:24:26;;;;;;;5.40;1.00;;;;;;;21.98;26.92;99723.75;5070692;28;20546;-69
2022/07/01 10:26:59;;;;;;;5.63;0.98;;;;;;;21.99;27.07;99725.38;5052999;28;20029;-70
2022/07/01 10:29:38;;;;;;;2.47;1.00;;;;;;;21.99;27.19;99720.84;5070567;28;20036;-70
2022/07/01 10:32:28;;;;;;;2.70;0.77;;;;;;;22.04;27.15;99731.03;5070355;28;20021;-71
2022/07/01 10:35:05;;;;;;;6.95;1.15;;;;;;;22.08;27.10;99745.81;5072604;28;20082;-70
2022/07/01 10:37:30;;;;;;;5.85;0.85;;;;;;;22.00;26.43;99732.44;5071837;28;20032;-70
2022/07/01 10:39:58;;;;;;;6.75;0.90;;;;;;;21.98;26.81;99735.34;5070743;28;20040;-70
2022/07/01 10:42:36;;;;;;;4.03;0.80;;;;;;;22.01;26.80;99736.81;5071135;28;20048;-70
2022/07/01 10:45:04;;;;;;;3.80;1.00;;;;;;;22.05;26.76;99740.81;5072996;28;20123;-70
2022/07/01 10:47:30;;;;;;;2.65;0.85;;;;;;;22.04;26.95;99736.44;5075511;28;20043;-71
2022/07/01 10:50:03;;;;;;;4.18;0.82;;;;;;;22.04;26.74;99736.44;5072439;28;20044;-70
2022/07/01 10:52:29;;;;;;;3.13;1.23;;;;;;;22.08;27.17;99729.66;5071009;28;20067;-69
2022/07/01 10:54:56;;;;;;;2.35;0.85;;;;;;;22.17;26.89;99733.88;5072123;28;20118;-70
2022/07/01 10:57:26;;;;;;;11.23;0.93;;;;;;;22.16;26.80;99726.81;5065178;28;20115;-69
2022/07/01 11:00:01;;;;;;;1.07;0.63;;;;;;;22.18;26.84;99722.06;5070707;28;20135;-71
2022/07/01 11:02:32;;;;;;;5.25;0.90;;;;;;;22.13;26.76;99737.97;5070675;28;20043;-70
2022/07/01 11:05:01;;;;;;;4.15;0.90;;;;;;;22.10;26.81;99741.06;5073970;28;20067;-70
2022/07/01 11:07:29;;;;;;;1.17;0.82;;;;;;;22.10;26.88;99727.59;5074119;28;20044;-70
2022/07/01 11:09:56;;;;;;;2.80;0.90;;;;;;;22.09;26.95;99715.97;5073995;28;20115;-71
2022/07/01 11:12:25;;;;;;;3.22;1.10;;;;;;;22.03;26.71;99721.28;5075061;28;20033;-72
2022/07/01 11:14:52;;;;;;;2.42;1.40;;;;;;;22.04;27.01;99721.13;5074625;28;20087;-70
2022/07/01 11:17:18;;;;;;;5.30;0.90;;;;;;;22.09;27.14;99712.47;5074858;28;20110;-69
2022/07/01 11:19:57;;;;;;;1.83;1.15;;;;;;;22.09;26.85;99724.06;5073227;28;20056;-69
2022/07/01 11:22:26;;;;;;;7.40;1.27;;;;;;;22.02;26.46;99715.09;5073955;28;20075;-70
2022/07/01 11:24:56;;;;;;;3.90;1.02;;;;;;;22.00;26.62;99718.97;5075242;28;20040;-69
2022/07/01 11:27:22;;;;;;;4.07;1.52;;;;;;;22.03;26.39;99718.59;5072818;28;20033;-69
2022/07/01 11:29:52;;;;;;;4.38;1.30;;;;;;;22.06;25.99;99719.03;5065178;28;20117;-69
2022/07/01 11:32:32;;;;;;;5.63;2.50;;;;;;;22.14;25.98;99728.03;5075814;28;20112;-69
2022/07/01 11:34:59;;;;;;;5.47;1.23;;;;;;;22.16;26.01;99724.13;5075288;28;20032;-69
2022/07/01 11:40:17;;;;;;;3.08;1.48;;;;;;;22.16;26.12;99721.44;5075582;28;20149;-69
2022/07/01 11:42:43;;;;;;;9.10;0.90;;;;;;;22.17;26.25;99728.47;5073584;28;20032;-69